Time;durP1;ratioP1;P1;durP2;ratioP2;P2;SDS_P1;SDS_P2;PMS_P1;PMS_P2;Temp;Humidity;BMP_temperature;BMP_pressure;BME280_temperature;BME280_humidity;BME280_pressure;Samples;Min_cycle;Max_cycle;Signal;HPM_P1;HPM_P2
2023/04/20 00:07:57;;;;;;;3.47;1.87;;;;;;;7.24;29.58;100957.78;20730463;28;20221;-80
2023/04/20 00:18:00;;;;;;;2.50;1.67;;;;;;;6.66;32.21;100954.44;20742010;28;20265;-79
2023/04/20 00:28:02;;;;;;;4.53;2.27;;;;;;;7.01;30.73;100941.88;20667597;28;20194;-79
2023/04/20 00:38:04;;;;;;;7.57;2.33;;;;;;;7.01;29.14;100925.88;20672312;28;20228;-79
2023/04/20 00:48:06;;;;;;;3.97;2.13;;;;;;;6.87;29.86;100913.72;20745158;28;20189;-79
2023/04/20 00:58:10;;;;;;;4.10;2.20;;;;;;;6.63;29.59;100891.34;20746738;28;20618;-79
2023/04/20 01:08:12;;;;;;;4.47;2.00;;;;;;;6.46;29.23;100882.56;20763144;28;20213;-79
2023/04/20 01:18:17;;;;;;;4.07;2.27;;;;;;;6.98;29.09;100869.50;20742883;28;20585;-81
2023/04/20 01:28:20;;;;;;;3.83;1.87;;;;;;;7.01;29.06;100846.44;20744645;28;20193;-79
2023/04/20 01:38:22;;;;;;;4.40;2.23;;;;;;;7.10;29.36;100816.50;20727396;28;20213;-79
2023/04/20 01:48:24;;;;;;;4.30;1.70;;;;;;;6.90;30.30;100828.09;20724803;28;20193;-79
2023/04/20 01:58:28;;;;;;;3.20;2.03;;;;;;;6.35;30.72;100794.97;20729588;28;20220;-78
2023/04/20 02:08:30;;;;;;;2.87;1.63;;;;;;;6.59;31.00;100792.09;20725149;28;20245;-80
2023/04/20 02:18:32;;;;;;;4.87;2.13;;;;;;;6.69;31.65;100771.50;20735673;28;20216;-79
2023/04/20 02:28:34;;;;;;;4.30;1.87;;;;;;;6.51;32.78;100775.94;20735159;28;20541;-79
2023/04/20 02:38:39;;;;;;;4.43;2.00;;;;;;;6.13;34.16;100766.69;20747944;28;20213;-79
2023/04/20 02:48:41;;;;;;;4.37;1.87;;;;;;;6.45;35.51;100749.09;20720822;28;20276;-79
2023/04/20 02:58:47;;;;;;;5.20;2.03;;;;;;;6.28;36.66;100757.22;20751285;28;20239;-79
2023/04/20 03:09:09;;;;;;;4.53;2.20;;;;;;;6.12;38.54;100744.56;20740017;28;20221;-79
2023/04/20 03:19:27;;;;;;;4.07;2.47;;;;;;;6.05;39.12;100738.50;20749756;28;20232;-79
2023/04/20 03:29:29;;;;;;;5.40;2.80;;;;;;;6.08;40.78;100726.69;20750458;28;20197;-80
2023/04/20 03:39:32;;;;;;;4.17;2.60;;;;;;;6.28;40.77;100724.41;20750744;28;20213;-79
2023/04/20 03:49:34;;;;;;;4.40;2.93;;;;;;;5.77;43.67;100720.69;20745802;28;20193;-79
2023/04/20 03:59:37;;;;;;;4.80;3.03;;;;;;;5.82;44.14;100720.59;20736648;28;20255;-79
2023/04/20 04:09:41;;;;;;;4.20;2.70;;;;;;;5.73;43.84;100716.81;20756622;28;20256;-79
2023/04/20 04:19:43;;;;;;;3.30;2.33;;;;;;;5.60;44.00;100712.78;20736290;28;20237;-79
2023/04/20 04:29:46;;;;;;;3.03;2.73;;;;;;;5.43;43.79;100715.22;20747954;28;20181;-78
2023/04/20 04:39:52;;;;;;;2.53;2.10;;;;;;;5.93;43.28;100703.34;20741964;28;20666;-79
2023/04/20 04:50:04;;;;;;;2.93;2.07;;;;;;;5.65;43.93;100704.31;20759182;28;20201;-78
2023/04/20 05:00:11;;;;;;;2.87;1.90;;;;;;;5.81;43.48;100716.13;20738592;28;20252;-79
2023/04/20 05:10:13;;;;;;;2.50;2.30;;;;;;;5.58;45.28;100721.47;20736602;28;20638;-80
2023/04/20 05:20:17;;;;;;;3.43;2.70;;;;;;;5.60;44.49;100721.19;20756846;28;20221;-80
2023/04/20 05:30:19;;;;;;;2.80;2.50;;;;;;;5.17;47.73;100735.06;20733323;28;20193;-81
2023/04/20 05:40:23;;;;;;;4.83;4.03;;;;;;;4.86;53.00;100742.13;20694458;28;20569;-79
2023/04/20 05:50:25;;;;;;;4.70;4.03;;;;;;;4.82;53.69;100744.66;20722727;28;20591;-80
2023/04/20 06:00:28;;;;;;;6.53;3.70;;;;;;;4.77;54.37;100755.06;20716395;28;20611;-79
2023/04/20 06:10:32;;;;;;;5.20;4.17;;;;;;;4.79;56.87;100738.81;20715772;28;20230;-81
2023/04/20 06:20:35;;;;;;;5.57;3.93;;;;;;;4.79;56.45;100744.41;20694045;28;20274;-84
2023/04/20 06:30:37;;;;;;;7.93;4.93;;;;;;;4.72;56.70;100739.19;20706500;28;20461;-84
2023/04/20 06:40:39;;;;;;;5.13;4.53;;;;;;;5.22;55.65;100731.41;20725833;28;20221;-85
2023/04/20 06:50:42;;;;;;;5.47;4.87;;;;;;;5.43;56.10;100720.81;20730322;28;20193;-84
2023/04/20 07:00:44;;;;;;;8.07;4.23;;;;;;;6.01;53.20;100716.69;20710309;28;20272;-86
2023/04/20 07:10:46;;;;;;;5.17;4.57;;;;;;;5.43;55.88;100720.81;20724603;28;20503;-87
2023/04/20 07:20:49;;;;;;;8.77;5.13;;;;;;;5.59;54.42;100713.91;20728071;28;20224;-87
2023/04/20 07:30:51;;;;;;;7.30;4.80;;;;;;;5.86;53.95;100711.31;20683435;28;20220;-87
2023/04/20 07:40:53;;;;;;;7.03;4.07;;;;;;;5.45;53.62;100712.97;20713365;28;20283;-86
2023/04/20 07:50:55;;;;;;;6.17;4.20;;;;;;;5.87;51.56;100704.56;20716444;28;20476;-86
2023/04/20 08:00:58;;;;;;;7.17;5.00;;;;;;;5.84;53.78;100701.53;20727386;28;20646;-87
2023/04/20 08:11:00;;;;;;;8.77;4.93;;;;;;;5.62;53.69;100702.94;20729753;28;20229;-83
2023/04/20 08:21:03;;;;;;;7.23;5.13;;;;;;;6.00;52.33;100692.59;20732773;28;20225;-86
2023/04/20 08:31:05;;;;;;;6.90;5.83;;;;;;;4.95;57.70;100715.19;20704234;28;20205;-82
2023/04/20 08:41:08;;;;;;;4.47;3.50;;;;;;;5.93;56.03;100696.94;20718292;28;20222;-85
2023/04/20 08:51:11;;;;;;;3.97;3.67;;;;;;;5.11;57.68;100691.50;20705644;28;20597;-84
2023/04/20 09:01:13;;;;;;;4.53;4.13;;;;;;;6.03;58.22;100696.78;20718667;28;20637;-87
2023/04/20 09:11:21;;;;;;;5.17;4.53;;;;;;;5.92;55.26;100692.47;20732462;28;20229;-88
2023/04/20 09:21:26;;;;;;;6.67;5.57;;;;;;;5.82;55.95;100699.03;20722364;28;20225;-87
2023/04/20 09:31:29;;;;;;;6.80;5.43;;;;;;;5.84;55.35;100699.56;20744121;28;20475;-85
2023/04/20 09:41:32;;;;;;;5.87;5.10;;;;;;;5.43;56.03;100698.41;20717130;28;20218;-86
2023/04/20 09:51:36;;;;;;;4.13;3.73;;;;;;;4.90;58.27;100690.88;20723457;28;20186;-84
2023/04/20 10:01:39;;;;;;;4.13;3.73;;;;;;;6.23;56.71;100687.22;20678803;28;20299;-81
2023/04/20 10:11:41;;;;;;;4.90;4.30;;;;;;;6.43;54.07;100686.91;20702307;28;20221;-87
2023/04/20 10:21:55;;;;;;;4.93;3.80;;;;;;;6.15;52.35;100688.75;20721936;28;20283;-87
2023/04/20 10:31:57;;;;;;;4.30;3.90;;;;;;;6.71;49.75;100668.19;20719184;28;20185;-86
2023/04/20 10:42:02;;;;;;;4.07;3.57;;;;;;;7.04;49.97;100660.56;20727016;28;20618;-86
2023/04/20 10:52:04;;;;;;;4.23;3.63;;;;;;;7.25;51.49;100661.78;20710166;28;20197;-86
2023/04/20 11:02:07;;;;;;;4.27;2.67;;;;;;;7.52;47.04;100660.13;20726202;28;20227;-85
2023/04/20 11:12:13;;;;;;;2.70;2.50;;;;;;;7.11;48.70;100655.34;20685099;28;20225;-84
2023/04/20 11:22:55;;;;;;;4.10;2.97;;;;;;;7.81;46.38;100628.88;20694211;28;20221;-85
2023/04/20 11:33:27;;;;;;;3.53;3.20;;;;;;;8.46;42.48;100623.59;20706455;28;20189;-87
2023/04/20 11:43:31;;;;;;;3.20;2.90;;;;;;;7.34;44.30;100634.66;20720864;28;20270;-87
2023/04/20 11:53:33;;;;;;;4.13;3.27;;;;;;;7.79;42.81;100635.66;20702403;28;20194;-88
2023/04/20 12:03:35;;;;;;;3.50;3.20;;;;;;;8.69;42.72;100614.00;20715951;28;20272;-87
2023/04/20 12:13:38;;;;;;;4.67;3.43;;;;;;;8.55;41.74;100632.91;20724853;28;20253;-84
2023/04/20 12:23:41;;;;;;;4.57;3.33;;;;;;;7.99;40.56;100637.16;20742733;28;20275;-87
2023/04/20 12:33:43;;;;;;;4.88;3.67;;;;;;;9.46;39.11;100630.38;20730768;28;20185;-87
2023/04/20 12:43:45;;;;;;;4.17;3.77;;;;;;;8.43;40.11;100647.56;20715169;28;20222;-87
2023/04/20 12:53:48;;;;;;;4.50;4.10;;;;;;;8.79;38.68;100635.41;20732499;28;20187;-88
2023/04/20 13:03:51;;;;;;;4.95;4.13;;;;;;;9.33;37.12;100617.25;20736970;28;20337;-86
2023/04/20 13:13:55;;;;;;;5.93;4.80;;;;;;;8.75;37.15;100623.97;20729843;28;20681;-85
2023/04/20 13:23:57;;;;;;;6.80;6.00;;;;;;;8.18;40.71;100633.31;20721099;28;20244;-83
2023/04/20 13:33:59;;;;;;;6.63;5.93;;;;;;;7.96;38.68;100615.31;20714726;28;20193;-87
2023/04/20 13:44:03;;;;;;;6.65;5.95;;;;;;;10.01;36.58;100601.63;20711507;28;20275;-88
2023/04/20 13:54:06;;;;;;;6.90;6.00;;;;;;;9.46;36.68;100588.09;20738505;28;20240;-87
2023/04/20 14:04:09;;;;;;;6.50;5.70;;;;;;;9.43;36.30;100585.13;20722044;28;20225;-86
2023/04/20 14:14:12;;;;;;;8.10;5.90;;;;;;;9.27;37.54;100576.31;20697091;28;20271;-86
2023/04/20 14:24:14;;;;;;;5.55;5.00;;;;;;;10.06;35.16;100570.44;20719286;28;20572;-88
2023/04/20 14:34:16;;;;;;;6.25;5.15;;;;;;;9.28;34.55;100575.16;20735463;28;20590;-87
2023/04/20 14:44:19;;;;;;;5.65;5.05;;;;;;;10.11;34.11;100563.78;20722966;28;20233;-87
2023/04/20 14:54:21;;;;;;;5.43;4.50;;;;;;;9.29;34.05;100556.28;20719247;28;20201;-87
2023/04/20 15:04:23;;;;;;;4.63;4.20;;;;;;;9.35;33.29;100554.94;20704788;28;20779;-87
2023/04/20 15:14:27;;;;;;;16.73;4.70;;;;;;;9.40;32.71;100537.88;20711563;28;20205;-84
2023/04/20 15:24:29;;;;;;;4.40;4.03;;;;;;;9.68;35.55;100521.53;20749354;28;20225;-85
2023/04/20 15:34:31;;;;;;;3.97;3.50;;;;;;;10.22;33.09;100505.81;20731574;28;20247;-86
2023/04/20 15:44:33;;;;;;;3.20;2.90;;;;;;;10.54;33.25;100505.28;20742532;28;20213;-82
2023/04/20 15:54:36;;;;;;;4.33;3.77;;;;;;;9.88;34.21;100503.91;20730913;28;20474;-83
2023/04/20 16:04:38;;;;;;;3.22;2.92;;;;;;;9.79;35.11;100494.66;20710609;28;20220;-87
2023/04/20 16:14:40;;;;;;;3.67;3.38;;;;;;;10.07;35.33;100492.28;20701999;28;20591;-84
2023/04/20 16:24:42;;;;;;;3.10;2.80;;;;;;;9.08;37.13;100519.41;20711165;28;20252;-86
2023/04/20 16:34:44;;;;;;;3.20;2.90;;;;;;;9.32;36.17;100516.97;20727803;28;20197;-84
2023/04/20 16:44:46;;;;;;;3.70;3.30;;;;;;;9.48;36.26;100537.06;20733778;28;20217;-80
2023/04/20 16:54:49;;;;;;;4.20;3.75;;;;;;;7.63;41.37;100563.25;20718961;28;20189;-83
2023/04/20 17:04:51;;;;;;;3.63;3.20;;;;;;;7.61;43.07;100591.66;20734008;28;20221;-83
2023/04/20 17:14:54;;;;;;;4.72;3.72;;;;;;;7.65;44.81;100589.88;20701506;28;20197;-81
2023/04/20 17:24:56;;;;;;;4.60;4.20;;;;;;;8.20;48.24;100588.84;20703228;28;20290;-85
2023/04/20 17:34:58;;;;;;;5.27;4.77;;;;;;;8.03;48.90;100598.81;20726661;28;20263;-85
2023/04/20 17:45:00;;;;;;;5.63;4.87;;;;;;;8.42;51.21;100605.69;20729523;28;20230;-78
2023/04/20 17:55:03;;;;;;;6.23;5.63;;;;;;;8.27;52.57;100606.91;20731845;28;20263;-78
2023/04/20 18:05:05;;;;;;;6.53;5.83;;;;;;;8.13;51.93;100592.94;20729514;28;20692;-77
2023/04/20 18:15:08;;;;;;;6.27;5.67;;;;;;;8.12;51.33;100582.03;20724703;28;20184;-77
2023/04/20 18:25:10;;;;;;;6.77;5.90;;;;;;;8.46;52.56;100578.59;20729408;28;20252;-78
2023/04/20 18:35:12;;;;;;;8.13;6.93;;;;;;;8.02;54.28;100574.66;20708568;28;20586;-78
2023/04/20 18:45:14;;;;;;;6.50;5.90;;;;;;;7.70;54.36;100566.47;20727315;28;20217;-79
2023/04/20 18:55:16;;;;;;;7.15;6.43;;;;;;;8.08;52.03;100562.13;20695694;28;20223;-84
2023/04/20 19:05:19;;;;;;;7.15;6.32;;;;;;;7.40;53.31;100574.41;20713489;28;20307;-81
2023/04/20 19:15:24;;;;;;;8.30;7.40;;;;;;;8.03;50.61;100579.13;20715673;28;20251;-79
2023/04/20 19:25:26;;;;;;;12.20;9.00;;;;;;;7.30;51.56;100568.19;20722782;28;20216;-78
2023/04/20 19:35:29;;;;;;;10.63;9.63;;;;;;;7.41;52.79;100569.63;20702159;28;20634;-78
2023/04/20 19:45:31;;;;;;;12.43;11.13;;;;;;;7.91;50.48;100562.00;20726355;28;20221;-79
2023/04/20 19:55:33;;;;;;;12.53;11.23;;;;;;;7.56;51.52;100560.03;20712614;28;20673;-79
2023/04/20 20:05:35;;;;;;;12.93;11.57;;;;;;;7.58;51.50;100541.72;20708780;28;20225;-85
2023/04/20 20:15:37;;;;;;;13.47;11.30;;;;;;;7.41;51.16;100550.81;20713420;28;20225;-82
2023/04/20 20:25:39;;;;;;;12.70;11.27;;;;;;;7.10;49.91;100541.38;20714320;28;20283;-79
2023/04/20 20:35:41;;;;;;;13.27;10.17;;;;;;;6.30;52.04;100541.88;20724965;28;20473;-79
2023/04/20 20:45:44;;;;;;;10.30;9.20;;;;;;;6.62;52.59;100505.38;20713113;28;20649;-81
2023/04/20 20:55:46;;;;;;;9.57;8.57;;;;;;;7.20;50.29;100503.84;20761257;28;20494;-87
2023/04/20 21:05:48;;;;;;;10.10;9.07;;;;;;;8.03;48.33;100508.84;20756758;28;20275;-88
2023/04/20 21:15:50;;;;;;;10.37;9.27;;;;;;;7.54;50.65;100501.34;20757208;28;20189;-84
2023/04/20 21:25:52;;;;;;;13.00;9.77;;;;;;;7.28;52.00;100498.31;20752398;28;20279;-82
2023/04/20 21:35:55;;;;;;;13.77;9.60;;;;;;;7.64;49.05;100495.50;20741579;28;20223;-79
2023/04/20 21:45:59;;;;;;;13.13;10.03;;;;;;;7.22;49.49;100485.56;20744278;28;20284;-80
2023/04/20 21:56:02;;;;;;;11.47;9.80;;;;;;;8.06;50.15;100480.09;20741940;28;20592;-79
2023/04/20 22:06:05;;;;;;;12.55;10.07;;;;;;;7.45;49.37;100472.34;20723602;28;20581;-81
2023/04/20 22:16:07;;;;;;;11.50;10.30;;;;;;;7.62;50.54;100463.22;20743052;28;20202;-79
2023/04/20 22:26:09;;;;;;;13.77;10.87;;;;;;;7.78;50.33;100458.91;20739989;28;20225;-79
2023/04/20 22:36:12;;;;;;;13.30;11.10;;;;;;;7.33;52.29;100464.50;20723082;28;20247;-79
2023/04/20 22:46:14;;;;;;;13.50;12.03;;;;;;;7.31;53.98;100449.09;20747976;28;20225;-85
2023/04/20 22:56:16;;;;;;;15.13;12.33;;;;;;;7.11;55.11;100439.19;20725527;28;20268;-78
2023/04/20 23:06:20;;;;;;;17.13;13.13;;;;;;;7.03;57.95;100445.56;20750315;28;20248;-78
2023/04/20 23:16:22;;;;;;;18.27;14.53;;;;;;;7.33;57.20;100436.41;20747814;28;20193;-78
2023/04/20 23:26:25;;;;;;;21.90;16.43;;;;;;;7.51;59.46;100428.09;20744674;28;20280;-76
2023/04/20 23:36:27;;;;;;;21.40;16.30;;;;;;;7.48;58.33;100423.16;20745170;28;20194;-77
2023/04/20 23:46:29;;;;;;;19.60;15.83;;;;;;;7.29;59.24;100414.91;20718943;28;20216;-77
2023/04/20 23:56:31;;;;;;;24.03;18.07;;;;;;;7.53;57.57;100403.34;20730070;28;20189;-77
